createdAt,value
2018-12-30T00:00:39.731Z,1006.51
2018-12-30T00:01:39.758Z,1006.49
2018-12-30T00:02:39.768Z,1006.5
2018-12-30T00:03:39.786Z,1006.56
2018-12-30T00:04:39.852Z,1006.54
2018-12-30T00:05:39.871Z,1006.63
2018-12-30T00:06:40.189Z,1006.6
2018-12-30T00:07:39.857Z,1006.58
2018-12-30T00:08:39.880Z,1006.61
2018-12-30T00:09:39.899Z,1006.61
2018-12-30T00:10:39.911Z,1006.63
2018-12-30T00:11:39.933Z,1006.64
2018-12-30T00:12:39.952Z,1006.73
2018-12-30T00:13:39.969Z,1006.64
2018-12-30T00:14:39.987Z,1006.72
2018-12-30T00:15:40.001Z,1006.68
2018-12-30T00:16:40.019Z,1006.66
2018-12-30T00:17:40.035Z,1006.73
2018-12-30T00:18:40.053Z,1006.74
2018-12-30T00:19:42.303Z,1006.8
2018-12-30T00:20:40.090Z,1006.77
2018-12-30T00:21:40.107Z,1006.81
2018-12-30T00:22:40.129Z,1006.82
2018-12-30T00:23:40.143Z,1006.82
2018-12-30T00:24:40.165Z,1006.85
2018-12-30T00:25:40.177Z,1006.86
2018-12-30T00:26:40.196Z,1006.94
2018-12-30T00:27:40.219Z,1006.92
2018-12-30T00:28:40.235Z,1006.96
2018-12-30T00:29:40.299Z,1006.95
2018-12-30T00:30:40.270Z,1006.93
2018-12-30T00:31:40.288Z,1006.97
2018-12-30T00:32:40.307Z,1007.01
2018-12-30T00:33:40.324Z,1007.06
2018-12-30T00:34:40.343Z,1007.1
2018-12-30T00:35:40.361Z,1007.08
2018-12-30T00:36:40.380Z,1007.1
2018-12-30T00:37:40.396Z,1007.12
2018-12-30T00:38:40.415Z,1007.22
2018-12-30T00:39:40.431Z,1007.17
2018-12-30T00:40:40.449Z,1007.13
2018-12-30T00:41:40.465Z,1007.12
2018-12-30T00:42:40.483Z,1007.25
2018-12-30T00:43:40.503Z,1007.15
2018-12-30T00:44:40.516Z,1007.27
2018-12-30T00:45:40.534Z,1007.29
2018-12-30T00:46:40.552Z,1007.26
2018-12-30T00:47:40.569Z,1007.35
2018-12-30T00:48:40.626Z,1007.37
2018-12-30T00:49:40.606Z,1007.39
2018-12-30T00:50:40.627Z,1007.37
2018-12-30T00:51:40.641Z,1007.37
2018-12-30T00:52:40.662Z,1007.34
2018-12-30T00:53:40.677Z,1007.45
2018-12-30T00:54:40.698Z,1007.41
2018-12-30T00:55:40.717Z,1007.48
2018-12-30T00:56:40.730Z,1007.45
2018-12-30T00:57:40.753Z,1007.49
2018-12-30T00:58:40.769Z,1007.58
2018-12-30T00:59:40.783Z,1007.65
2018-12-30T01:00:40.804Z,1007.62
2018-12-30T01:01:40.820Z,1007.56
2018-12-30T01:02:40.842Z,1007.55
2018-12-30T01:03:40.856Z,1007.64
2018-12-30T01:04:40.877Z,1007.63
2018-12-30T01:05:40.890Z,1007.68
2018-12-30T01:06:40.908Z,1007.69
2018-12-30T01:07:40.927Z,1007.67
2018-12-30T01:08:40.945Z,1007.78
2018-12-30T01:09:40.966Z,1007.81
2018-12-30T01:10:40.979Z,1007.77
2018-12-30T01:11:41.002Z,1007.91
2018-12-30T01:12:41.021Z,1007.82
2018-12-30T01:13:41.039Z,1007.89
2018-12-30T01:14:41.051Z,1007.91
2018-12-30T01:15:41.070Z,1007.85
2018-12-30T01:16:41.090Z,1007.93
2018-12-30T01:17:41.104Z,1007.98
2018-12-30T01:18:41.123Z,1007.99
2018-12-30T01:19:41.146Z,1008.01
2018-12-30T01:20:41.157Z,1008.07
2018-12-30T01:21:41.178Z,1008.04
2018-12-30T01:22:41.195Z,1008.06
2018-12-30T01:23:41.216Z,1008.12
2018-12-30T01:24:41.234Z,1008.12
2018-12-30T01:25:41.249Z,1008.16
2018-12-30T01:26:41.270Z,1008.21
2018-12-30T01:27:41.295Z,1008.2
2018-12-30T01:28:41.301Z,1008.24
2018-12-30T01:29:41.321Z,1008.27
2018-12-30T01:30:41.343Z,1008.31
2018-12-30T01:31:41.355Z,1008.41
2018-12-30T01:32:41.382Z,1008.46
2018-12-30T01:33:41.396Z,1008.51
2018-12-30T01:34:41.409Z,1008.46
2018-12-30T01:35:41.427Z,1008.48
2018-12-30T01:36:41.450Z,1008.51
2018-12-30T01:37:41.464Z,1008.55
2018-12-30T01:38:41.479Z,1008.57
2018-12-30T01:39:41.502Z,1008.53
2018-12-30T01:40:41.516Z,1008.58
2018-12-30T01:41:41.534Z,1008.54
2018-12-30T01:42:41.553Z,1008.56
2018-12-30T01:43:41.573Z,1008.65
2018-12-30T01:44:41.590Z,1008.67
2018-12-30T01:45:41.605Z,1008.67
2018-12-30T01:46:41.629Z,1008.71
2018-12-30T01:47:41.643Z,1008.77
2018-12-30T01:48:41.666Z,1008.76
2018-12-30T01:49:41.679Z,1008.77
2018-12-30T01:50:41.701Z,1008.86
2018-12-30T01:51:41.715Z,1008.94
2018-12-30T01:52:41.734Z,1008.95
2018-12-30T01:53:41.752Z,1009
2018-12-30T01:54:41.772Z,1009.05
2018-12-30T01:55:41.786Z,1009.08
2018-12-30T01:56:41.804Z,1009.11
2018-12-30T01:57:41.826Z,1009.1
2018-12-30T01:58:41.839Z,1009.16
2018-12-30T01:59:41.857Z,1009.16
2018-12-30T02:00:41.957Z,1009.18
2018-12-30T02:01:41.893Z,1009.2
2018-12-30T02:02:41.915Z,1009.17
2018-12-30T02:03:41.928Z,1009.22
2018-12-30T02:04:41.951Z,1009.31
2018-12-30T02:05:41.969Z,1009.35
2018-12-30T02:06:41.984Z,1009.31
2018-12-30T02:07:42.002Z,1009.36
2018-12-30T02:08:42.018Z,1009.43
2018-12-30T02:09:42.036Z,1009.43
2018-12-30T02:10:42.059Z,1009.35
2018-12-30T02:11:42.071Z,1009.41
2018-12-30T02:12:42.090Z,1009.41
2018-12-30T02:13:42.107Z,1009.46
2018-12-30T02:14:42.130Z,1009.49
2018-12-30T02:15:42.148Z,1009.52
2018-12-30T02:16:42.164Z,1009.64
2018-12-30T02:17:42.183Z,1009.64
2018-12-30T02:18:42.200Z,1009.61
2018-12-30T02:19:42.214Z,1009.68
2018-12-30T02:20:42.232Z,1009.62
2018-12-30T02:21:42.252Z,1009.72
2018-12-30T02:22:42.267Z,1009.75
2018-12-30T02:23:42.292Z,1009.71
2018-12-30T02:24:42.305Z,1009.75
2018-12-30T02:25:42.321Z,1009.76
2018-12-30T02:26:42.344Z,1009.78
2018-12-30T02:27:42.362Z,1009.8
2018-12-30T02:28:42.380Z,1009.77
2018-12-30T02:29:42.398Z,1009.72
2018-12-30T02:30:42.417Z,1009.81
2018-12-30T02:31:42.430Z,1009.84
2018-12-30T02:32:42.450Z,1009.92
2018-12-30T02:33:42.470Z,1009.91
2018-12-30T02:34:42.487Z,1009.9
2018-12-30T02:35:42.504Z,1009.9
2018-12-30T02:36:42.518Z,1009.9
2018-12-30T02:37:42.541Z,1009.94
2018-12-30T02:38:42.649Z,1010.02
2018-12-30T02:39:42.579Z,1010.01
2018-12-30T02:40:42.592Z,1010.1
2018-12-30T02:41:42.616Z,1010.03
2018-12-30T02:42:42.626Z,1010.12
2018-12-30T02:43:42.645Z,1010.11
2018-12-30T02:44:42.664Z,1010.07
2018-12-30T02:45:42.687Z,1010.06
2018-12-30T02:46:42.703Z,1010.08
2018-12-30T02:47:42.720Z,1010.19
2018-12-30T02:48:42.736Z,1010.19
2018-12-30T02:49:42.761Z,1010.26
2018-12-30T02:50:42.777Z,1010.26
2018-12-30T02:51:50.168Z,1010.28
2018-12-30T02:52:42.806Z,1010.23
2018-12-30T02:53:42.942Z,1010.29
2018-12-30T02:54:42.845Z,1010.24
2018-12-30T02:55:42.865Z,1010.25
2018-12-30T02:56:42.883Z,1010.26
2018-12-30T02:57:42.898Z,1010.32
2018-12-30T02:58:42.919Z,1010.31
2018-12-30T02:59:42.931Z,1010.24
2018-12-30T03:00:42.960Z,1010.3
2018-12-30T03:01:42.973Z,1010.36
2018-12-30T03:02:42.991Z,1010.33
2018-12-30T03:03:43.005Z,1010.26
2018-12-30T03:04:43.027Z,1010.38
2018-12-30T03:05:43.040Z,1010.3
2018-12-30T03:06:43.062Z,1010.35
2018-12-30T03:07:43.121Z,1010.34
2018-12-30T03:08:43.094Z,1010.36
2018-12-30T03:09:43.114Z,1010.38
2018-12-30T03:10:43.281Z,1010.37
2018-12-30T03:11:43.147Z,1010.46
2018-12-30T03:12:43.166Z,1010.42
2018-12-30T03:13:43.182Z,1010.47
2018-12-30T03:14:43.204Z,1010.46
2018-12-30T03:15:43.226Z,1010.48
2018-12-30T03:16:43.239Z,1010.52
2018-12-30T03:17:43.257Z,1010.54
2018-12-30T03:18:43.275Z,1010.52
2018-12-30T03:19:43.293Z,1010.64
2018-12-30T03:20:43.318Z,1010.69
2018-12-30T03:21:43.330Z,1010.75
2018-12-30T03:22:43.351Z,1010.75
2018-12-30T03:23:43.367Z,1010.75
2018-12-30T03:24:43.382Z,1010.79
2018-12-30T03:25:43.656Z,1010.74
2018-12-30T03:26:43.419Z,1010.77
2018-12-30T03:27:43.442Z,1010.74
2018-12-30T03:28:43.454Z,1010.74
2018-12-30T03:29:43.472Z,1010.76
2018-12-30T03:30:43.492Z,1010.71
2018-12-30T03:31:43.515Z,1010.74
2018-12-30T03:32:43.533Z,1010.76
2018-12-30T03:33:43.550Z,1010.87
2018-12-30T03:34:43.567Z,1010.81
2018-12-30T03:35:43.585Z,1010.82
2018-12-30T03:36:43.603Z,1010.9
2018-12-30T03:37:43.621Z,1010.88
2018-12-30T03:38:43.639Z,1010.9
2018-12-30T03:39:43.656Z,1010.89
2018-12-30T03:40:43.674Z,1010.97
2018-12-30T03:41:43.694Z,1011.02
2018-12-30T03:42:43.711Z,1010.93
2018-12-30T03:43:43.724Z,1010.91
2018-12-30T03:44:43.742Z,1010.89
2018-12-30T03:45:43.763Z,1010.86
2018-12-30T03:46:43.783Z,1010.92
2018-12-30T03:47:43.801Z,1010.95
2018-12-30T03:48:43.815Z,1010.95
2018-12-30T03:49:43.835Z,1010.99
2018-12-30T03:50:43.855Z,1011.03
2018-12-30T03:51:43.872Z,1011.02
2018-12-30T03:52:43.887Z,1010.99
2018-12-30T03:53:43.956Z,1010.99
2018-12-30T03:54:43.922Z,1011.11
2018-12-30T03:55:43.944Z,1011.06
2018-12-30T03:56:43.962Z,1011.1
2018-12-30T03:57:43.981Z,1011.07
2018-12-30T03:58:43.993Z,1011.15
2018-12-30T03:59:44.012Z,1011.11
2018-12-30T04:00:44.030Z,1011.15
2018-12-30T04:01:44.053Z,1011.2
2018-12-30T04:02:44.071Z,1011.13
2018-12-30T04:03:44.087Z,1011.1
2018-12-30T04:04:44.108Z,1011.14
2018-12-30T04:05:44.177Z,1011.13
2018-12-30T04:06:44.143Z,1011.11
2018-12-30T04:07:44.155Z,1011.16
2018-12-30T04:08:44.176Z,1011.1
2018-12-30T04:09:44.192Z,1011.11
2018-12-30T04:10:44.218Z,1011.16
2018-12-30T04:11:44.227Z,1011.17
2018-12-30T04:12:44.248Z,1011.15
2018-12-30T04:13:44.269Z,1011.2
2018-12-30T04:14:44.287Z,1011.14
2018-12-30T04:15:44.301Z,1011.19
2018-12-30T04:16:44.318Z,1011.21
2018-12-30T04:17:44.339Z,1011.23
2018-12-30T04:18:44.360Z,1011.24
2018-12-30T04:19:44.376Z,1011.22
2018-12-30T04:20:44.390Z,1011.21
2018-12-30T04:21:44.413Z,1011.24
2018-12-30T04:22:44.432Z,1011.28
2018-12-30T04:23:44.446Z,1011.29
2018-12-30T04:24:44.462Z,1011.3
2018-12-30T04:25:44.486Z,1011.31
2018-12-30T04:26:44.503Z,1011.36
2018-12-30T04:27:44.583Z,1011.38
2018-12-30T04:28:44.538Z,1011.36
2018-12-30T04:29:44.553Z,1011.34
2018-12-30T04:30:44.574Z,1011.35
2018-12-30T04:31:44.593Z,1011.41
2018-12-30T04:32:44.607Z,1011.47
2018-12-30T04:33:44.628Z,1011.44
2018-12-30T04:34:44.646Z,1011.48
2018-12-30T04:35:44.665Z,1011.47
2018-12-30T04:36:44.679Z,1011.51
2018-12-30T04:37:44.699Z,1011.48
2018-12-30T04:38:44.714Z,1011.5
2018-12-30T04:39:44.740Z,1011.52
2018-12-30T04:40:44.755Z,1011.53
2018-12-30T04:41:44.768Z,1011.53
2018-12-30T04:42:44.785Z,1011.55
2018-12-30T04:43:44.804Z,1011.55
2018-12-30T04:44:44.822Z,1011.49
2018-12-30T04:45:44.839Z,1011.52
2018-12-30T04:46:44.865Z,1011.53
2018-12-30T04:47:44.881Z,1011.53
2018-12-30T04:48:44.948Z,1011.59
2018-12-30T04:49:44.917Z,1011.6
2018-12-30T04:50:44.935Z,1011.59
2018-12-30T04:51:44.955Z,1011.65
2018-12-30T04:52:44.973Z,1011.64
2018-12-30T04:53:44.992Z,1011.72
2018-12-30T04:54:45.011Z,1011.69
2018-12-30T04:55:45.024Z,1011.65
2018-12-30T04:56:45.037Z,1011.67
2018-12-30T04:57:45.060Z,1011.65
2018-12-30T04:58:45.074Z,1011.66
2018-12-30T04:59:45.097Z,1011.65
2018-12-30T05:00:45.111Z,1011.69
2018-12-30T05:01:45.133Z,1011.72
2018-12-30T05:02:45.145Z,1011.7
2018-12-30T05:03:45.164Z,1011.75
2018-12-30T05:04:45.186Z,1011.82
2018-12-30T05:05:45.201Z,1011.85
2018-12-30T05:06:45.217Z,1011.88
2018-12-30T05:07:45.236Z,1011.86
2018-12-30T05:08:45.255Z,1011.91
2018-12-30T05:09:45.276Z,1011.82
2018-12-30T05:10:45.293Z,1011.9
2018-12-30T05:11:45.314Z,1011.96
2018-12-30T05:12:45.331Z,1011.92
2018-12-30T05:13:45.347Z,1012
2018-12-30T05:14:45.366Z,1012.05
2018-12-30T05:15:45.383Z,1012.07
2018-12-30T05:16:45.397Z,1012.1
2018-12-30T05:17:45.419Z,1012.08
2018-12-30T05:18:45.440Z,1012.12
2018-12-30T05:19:45.457Z,1012.2
2018-12-30T05:20:45.470Z,1012.19
2018-12-30T05:21:45.492Z,1012.16
2018-12-30T05:22:45.507Z,1012.19
2018-12-30T05:23:45.525Z,1012.21
2018-12-30T05:24:45.546Z,1012.29
2018-12-30T05:25:45.563Z,1012.27
2018-12-30T05:26:45.578Z,1012.32
2018-12-30T05:27:45.603Z,1012.34
2018-12-30T05:28:45.612Z,1012.41
2018-12-30T05:29:45.633Z,1012.44
2018-12-30T05:30:45.649Z,1012.43
2018-12-30T05:31:45.817Z,1012.48
2018-12-30T05:32:45.688Z,1012.48
2018-12-30T05:33:45.706Z,1012.5
2018-12-30T05:34:45.721Z,1012.5
2018-12-30T05:35:45.741Z,1012.52
2018-12-30T05:36:45.762Z,1012.5
2018-12-30T05:37:45.776Z,1012.46
2018-12-30T05:38:45.796Z,1012.41
2018-12-30T05:39:45.810Z,1012.47
2018-12-30T05:40:45.829Z,1012.47
2018-12-30T05:41:45.847Z,1012.46
2018-12-30T05:42:45.866Z,1012.45
2018-12-30T05:43:45.918Z,1012.43
2018-12-30T05:44:45.904Z,1012.44
2018-12-30T05:45:45.920Z,1012.37
2018-12-30T05:46:45.937Z,1012.4
2018-12-30T05:47:45.956Z,1012.46
2018-12-30T05:48:45.978Z,1012.48
2018-12-30T05:49:45.992Z,1012.46
2018-12-30T05:50:46.012Z,1012.47
2018-12-30T05:51:46.032Z,1012.54
2018-12-30T05:52:46.047Z,1012.5
2018-12-30T05:53:46.064Z,1012.46
2018-12-30T05:54:46.080Z,1012.58
2018-12-30T05:55:46.098Z,1012.54
2018-12-30T05:56:46.117Z,1012.57
2018-12-30T05:57:46.140Z,1012.6
2018-12-30T05:58:46.152Z,1012.6
2018-12-30T05:59:46.178Z,1012.58
2018-12-30T06:00:46.194Z,1012.59
2018-12-30T06:01:46.207Z,1012.67
2018-12-30T06:02:46.230Z,1012.65
2018-12-30T06:03:46.245Z,1012.67
2018-12-30T06:04:46.267Z,1012.7
2018-12-30T06:05:46.278Z,1012.73
2018-12-30T06:06:46.303Z,1012.77
2018-12-30T06:07:46.315Z,1012.76
2018-12-30T06:08:46.334Z,1012.73
2018-12-30T06:09:46.355Z,1012.73
2018-12-30T06:10:46.373Z,1012.8
2018-12-30T06:11:46.388Z,1012.83
2018-12-30T06:12:46.405Z,1012.86
2018-12-30T06:13:46.427Z,1012.83
2018-12-30T06:14:46.440Z,1012.84
2018-12-30T06:15:46.465Z,1012.86
2018-12-30T06:16:46.475Z,1012.86
2018-12-30T06:17:46.500Z,1012.89
2018-12-30T06:18:46.512Z,1012.93
2018-12-30T06:19:46.530Z,1012.97
2018-12-30T06:20:46.553Z,1013
2018-12-30T06:21:46.571Z,1013.05
2018-12-30T06:22:49.570Z,1013.08
2018-12-30T06:23:46.607Z,1013.08
2018-12-30T06:24:46.625Z,1013.14
2018-12-30T06:25:46.639Z,1013.13
2018-12-30T06:26:46.659Z,1013.1
2018-12-30T06:27:46.680Z,1013.15
2018-12-30T06:28:46.698Z,1013.2
2018-12-30T06:29:46.716Z,1013.18
2018-12-30T06:30:46.730Z,1013.18
2018-12-30T06:31:46.748Z,1013.11
2018-12-30T06:32:46.767Z,1013.09
2018-12-30T06:33:46.789Z,1013.15
2018-12-30T06:34:46.803Z,1013.14
2018-12-30T06:35:46.821Z,1013.15
2018-12-30T06:36:46.842Z,1013.13
2018-12-30T06:37:46.860Z,1013.17
2018-12-30T06:38:46.874Z,1013.18
2018-12-30T06:39:46.893Z,1013.18
2018-12-30T06:40:46.911Z,1013.09
2018-12-30T06:41:46.943Z,1013.13
2018-12-30T06:42:46.950Z,1013.15
2018-12-30T06:43:46.965Z,1013.16
2018-12-30T06:44:46.983Z,1013.2
2018-12-30T06:45:47.000Z,1013.17
2018-12-30T06:46:47.024Z,1013.2
2018-12-30T06:47:47.038Z,1013.24
2018-12-30T06:48:47.058Z,1013.27
2018-12-30T06:49:47.076Z,1013.23
2018-12-30T06:50:47.091Z,1013.31
2018-12-30T06:51:47.108Z,1013.34
2018-12-30T06:52:47.131Z,1013.31
2018-12-30T06:53:47.149Z,1013.37
2018-12-30T06:54:47.164Z,1013.38
2018-12-30T06:55:47.181Z,1013.43
2018-12-30T06:56:47.199Z,1013.48
2018-12-30T06:57:47.217Z,1013.4
2018-12-30T06:58:47.235Z,1013.47
2018-12-30T06:59:47.253Z,1013.55
2018-12-30T07:00:47.271Z,1013.49
2018-12-30T07:01:47.294Z,1013.49
2018-12-30T07:02:47.314Z,1013.52
2018-12-30T07:03:47.329Z,1013.52
2018-12-30T07:04:47.347Z,1013.52
2018-12-30T07:05:47.364Z,1013.54
2018-12-30T07:06:47.382Z,1013.5
2018-12-30T07:07:47.398Z,1013.56
2018-12-30T07:08:47.423Z,1013.55
2018-12-30T07:09:47.439Z,1013.52
2018-12-30T07:10:47.456Z,1013.52
2018-12-30T07:11:47.470Z,1013.53
2018-12-30T07:12:47.486Z,1013.52
2018-12-30T07:13:47.505Z,1013.57
2018-12-30T07:14:47.528Z,1013.56
2018-12-30T07:15:47.546Z,1013.59
2018-12-30T07:16:47.559Z,1013.58
2018-12-30T07:17:47.581Z,1013.56
2018-12-30T07:18:47.594Z,1013.61
2018-12-30T07:19:47.619Z,1013.66
2018-12-30T07:20:47.630Z,1013.65
2018-12-30T07:21:47.653Z,1013.63
2018-12-30T07:22:47.665Z,1013.58
2018-12-30T07:23:47.690Z,1013.61
2018-12-30T07:24:47.702Z,1013.65
2018-12-30T07:25:47.720Z,1013.67
2018-12-30T07:26:47.743Z,1013.64
2018-12-30T07:27:47.761Z,1013.64
2018-12-30T07:28:47.774Z,1013.62
2018-12-30T07:29:47.792Z,1013.57
2018-12-30T07:30:47.815Z,1013.61
2018-12-30T07:31:47.828Z,1013.62
2018-12-30T07:32:47.846Z,1013.64
2018-12-30T07:33:47.866Z,1013.6
2018-12-30T07:34:47.882Z,1013.62
2018-12-30T07:35:47.969Z,1013.6
2018-12-30T07:36:47.918Z,1013.58
2018-12-30T07:37:47.937Z,1013.62
2018-12-30T07:38:47.953Z,1013.58
2018-12-30T07:39:47.976Z,1013.58
2018-12-30T07:40:47.995Z,1013.6
2018-12-30T07:41:48.013Z,1013.6
2018-12-30T07:42:48.030Z,1013.63
2018-12-30T07:43:48.047Z,1013.59
2018-12-30T07:44:48.065Z,1013.56
2018-12-30T07:45:48.079Z,1013.48
2018-12-30T07:46:48.104Z,1013.48
2018-12-30T07:47:48.120Z,1013.48
2018-12-30T07:48:48.138Z,1013.49
2018-12-30T07:49:48.153Z,1013.49
2018-12-30T07:50:48.175Z,1013.49
2018-12-30T07:51:48.188Z,1013.5
2018-12-30T07:52:48.206Z,1013.47
2018-12-30T07:53:48.229Z,1013.45
2018-12-30T07:54:48.241Z,1013.51
2018-12-30T07:55:48.260Z,1013.6
2018-12-30T07:56:48.279Z,1013.66
2018-12-30T07:57:48.296Z,1013.66
2018-12-30T07:58:48.318Z,1013.64
2018-12-30T07:59:48.335Z,1013.64
2018-12-30T08:00:48.350Z,1013.64
2018-12-30T08:01:48.369Z,1013.67
2018-12-30T08:02:48.386Z,1013.66
2018-12-30T08:03:48.405Z,1013.72
2018-12-30T08:04:48.429Z,1013.72
2018-12-30T08:05:48.446Z,1013.74
2018-12-30T08:06:48.463Z,1013.74
2018-12-30T08:07:48.511Z,1013.72
2018-12-30T08:08:48.499Z,1013.71
2018-12-30T08:09:48.515Z,1013.7
2018-12-30T08:10:48.532Z,1013.7
2018-12-30T08:11:48.549Z,1013.69
2018-12-30T08:12:48.571Z,1013.69
2018-12-30T08:13:48.586Z,1013.76
2018-12-30T08:14:48.603Z,1013.79
2018-12-30T08:15:49.002Z,1013.8
2018-12-30T08:16:48.638Z,1013.7
2018-12-30T08:17:48.659Z,1013.72
2018-12-30T08:18:48.677Z,1013.74
2018-12-30T08:19:48.697Z,1013.69
2018-12-30T08:20:48.711Z,1013.7
2018-12-30T08:21:48.735Z,1013.74
2018-12-30T08:22:48.748Z,1013.71
2018-12-30T08:23:48.768Z,1013.74
2018-12-30T08:24:48.785Z,1013.71
2018-12-30T08:25:48.801Z,1013.79
2018-12-30T08:26:48.821Z,1013.78
2018-12-30T08:27:48.846Z,1013.69
2018-12-30T08:28:48.857Z,1013.76
2018-12-30T08:29:48.875Z,1013.76
2018-12-30T08:30:48.898Z,1013.8
2018-12-30T08:31:48.914Z,1013.83
2018-12-30T08:32:48.934Z,1013.79
2018-12-30T08:33:48.951Z,1013.81
2018-12-30T08:34:48.964Z,1013.8
2018-12-30T08:35:48.983Z,1013.83
2018-12-30T08:36:49.006Z,1013.82
2018-12-30T08:37:49.023Z,1013.83
2018-12-30T08:38:49.040Z,1013.81
2018-12-30T08:39:49.059Z,1013.78
2018-12-30T08:40:49.073Z,1013.71
2018-12-30T08:41:49.092Z,1013.72
2018-12-30T08:42:49.162Z,1013.71
2018-12-30T08:43:49.126Z,1013.75
2018-12-30T08:44:49.149Z,1013.8
2018-12-30T08:45:49.163Z,1013.79
2018-12-30T08:46:49.185Z,1013.85
2018-12-30T08:47:49.204Z,1013.87
2018-12-30T08:48:49.761Z,1013.93
2018-12-30T08:49:49.239Z,1013.85
2018-12-30T08:50:49.258Z,1013.9
2018-12-30T08:51:49.271Z,1013.85
2018-12-30T08:52:49.291Z,1013.86
2018-12-30T08:53:49.308Z,1013.91
2018-12-30T08:54:49.329Z,1013.92
2018-12-30T08:55:49.344Z,1013.93
2018-12-30T08:56:49.365Z,1013.98
2018-12-30T08:57:49.379Z,1013.97
2018-12-30T08:58:49.402Z,1013.99
2018-12-30T08:59:49.421Z,1014.01
2018-12-30T09:00:49.438Z,1013.97
2018-12-30T09:01:49.452Z,1013.94
2018-12-30T09:02:49.474Z,1013.94
2018-12-30T09:03:49.489Z,1013.95
2018-12-30T09:04:49.510Z,1013.97
2018-12-30T09:05:49.528Z,1013.99
2018-12-30T09:06:49.547Z,1013.98
2018-12-30T09:07:49.564Z,1014.03
2018-12-30T09:08:49.582Z,1014.02
2018-12-30T09:09:49.598Z,1014.01
2018-12-30T09:10:49.619Z,1014.03
2018-12-30T09:11:49.633Z,1014.13
2018-12-30T09:12:49.650Z,1014.12
2018-12-30T09:13:49.669Z,1014.1
2018-12-30T09:14:49.686Z,1014.11
2018-12-30T09:15:49.710Z,1014.13
2018-12-30T09:16:49.722Z,1014.14
2018-12-30T09:17:49.744Z,1014.18
2018-12-30T09:18:49.757Z,1014.22
2018-12-30T09:19:49.782Z,1014.2
2018-12-30T09:20:49.795Z,1014.24
2018-12-30T09:21:49.812Z,1014.27
2018-12-30T09:22:49.830Z,1014.33
2018-12-30T09:23:49.852Z,1014.38
2018-12-30T09:24:49.869Z,1014.37
2018-12-30T09:25:49.884Z,1014.44
2018-12-30T09:26:49.902Z,1014.43
2018-12-30T09:27:49.920Z,1014.43
2018-12-30T09:28:49.937Z,1014.44
2018-12-30T09:29:49.959Z,1014.32
2018-12-30T09:30:49.974Z,1014.37
2018-12-30T09:31:49.995Z,1014.38
2018-12-30T09:32:50.014Z,1014.4
2018-12-30T09:33:50.031Z,1014.42
2018-12-30T09:34:50.054Z,1014.42
2018-12-30T09:35:50.065Z,1014.41
2018-12-30T09:36:50.092Z,1014.4
2018-12-30T09:37:50.100Z,1014.41
2018-12-30T09:38:50.123Z,1014.39
2018-12-30T09:39:50.141Z,1014.41
2018-12-30T09:40:50.157Z,1014.48
2018-12-30T09:41:50.172Z,1014.45
2018-12-30T09:42:50.195Z,1014.43
2018-12-30T09:43:50.213Z,1014.46
2018-12-30T09:44:50.230Z,1014.44
2018-12-30T09:45:50.253Z,1014.48
2018-12-30T09:46:50.265Z,1014.46
2018-12-30T09:47:50.280Z,1014.48
2018-12-30T09:48:50.300Z,1014.49
2018-12-30T09:49:50.314Z,1014.48
2018-12-30T09:50:50.338Z,1014.46
2018-12-30T09:51:50.349Z,1014.47
2018-12-30T09:52:50.368Z,1014.48
2018-12-30T09:53:50.388Z,1014.43
2018-12-30T09:54:50.406Z,1014.42
2018-12-30T09:55:50.422Z,1014.46
2018-12-30T09:56:50.442Z,1014.47
2018-12-30T09:57:50.536Z,1014.48
2018-12-30T09:58:50.481Z,1014.49
2018-12-30T09:59:50.500Z,1014.5
2018-12-30T10:00:50.516Z,1014.46
2018-12-30T10:01:50.537Z,1014.46
2018-12-30T10:02:50.553Z,1014.43
2018-12-30T10:03:50.567Z,1014.49
2018-12-30T10:04:50.589Z,1014.51
2018-12-30T10:05:50.608Z,1014.52
2018-12-30T10:06:50.621Z,1014.54
2018-12-30T10:07:50.638Z,1014.61
2018-12-30T10:08:50.661Z,1014.57
2018-12-30T10:09:50.679Z,1014.57
2018-12-30T10:10:50.697Z,1014.58
2018-12-30T10:11:50.711Z,1014.59
2018-12-30T10:12:50.734Z,1014.55
2018-12-30T10:13:50.751Z,1014.45
2018-12-30T10:14:50.771Z,1014.44
2018-12-30T10:15:50.788Z,1014.52
2018-12-30T10:16:50.801Z,1014.53
2018-12-30T10:17:50.819Z,1014.49
2018-12-30T10:18:50.841Z,1014.49
2018-12-30T10:19:50.855Z,1014.5
2018-12-30T10:20:50.872Z,1014.45
2018-12-30T10:21:50.896Z,1014.47
2018-12-30T10:22:58.622Z,1014.45
2018-12-30T10:23:52.995Z,1014.46
2018-12-30T10:24:50.946Z,1014.45
2018-12-30T10:25:50.964Z,1014.46
2018-12-30T10:26:50.986Z,1014.49
2018-12-30T10:27:51.005Z,1014.49
2018-12-30T10:28:51.072Z,1014.49
2018-12-30T10:29:51.041Z,1014.52
2018-12-30T10:30:51.057Z,1014.51
2018-12-30T10:31:51.076Z,1014.5
2018-12-30T10:32:51.089Z,1014.46
2018-12-30T10:33:51.112Z,1014.45
2018-12-30T10:34:51.130Z,1014.48
2018-12-30T10:35:51.145Z,1014.46
2018-12-30T10:36:51.166Z,1014.52
2018-12-30T10:37:51.181Z,1014.41
2018-12-30T10:38:51.199Z,1014.34
2018-12-30T10:39:51.216Z,1014.3
2018-12-30T10:40:51.237Z,1014.32
2018-12-30T10:41:51.257Z,1014.25
2018-12-30T10:42:51.279Z,1014.27
2018-12-30T10:43:51.296Z,1014.25
2018-12-30T10:44:51.307Z,1014.28
2018-12-30T10:45:51.334Z,1014.25
2018-12-30T10:46:51.344Z,1014.23
2018-12-30T10:47:51.367Z,1014.32
2018-12-30T10:48:51.429Z,1014.31
2018-12-30T10:49:51.403Z,1014.3
2018-12-30T10:50:51.417Z,1014.35
2018-12-30T10:51:51.434Z,1014.31
2018-12-30T10:52:51.452Z,1014.27
2018-12-30T10:53:51.472Z,1014.26
2018-12-30T10:54:51.488Z,1014.28
2018-12-30T10:55:51.510Z,1014.32
2018-12-30T10:56:51.529Z,1014.31
2018-12-30T10:57:51.547Z,1014.32
2018-12-30T10:58:51.580Z,1014.34
2018-12-30T10:59:51.579Z,1014.27
2018-12-30T11:00:51.602Z,1014.25
2018-12-30T11:01:51.615Z,1014.22
2018-12-30T11:02:51.634Z,1014.16
2018-12-30T11:03:51.703Z,1014.16
2018-12-30T11:04:51.669Z,1014.12
2018-12-30T11:05:51.694Z,1014.08
2018-12-30T11:06:51.706Z,1014.01
2018-12-30T11:07:51.725Z,1014.05
2018-12-30T11:08:51.743Z,1014.05
2018-12-30T11:09:51.765Z,1014.04
2018-12-30T11:10:51.784Z,1014.07
2018-12-30T11:11:51.802Z,1014.09
2018-12-30T11:12:51.820Z,1014.12
2018-12-30T11:13:51.839Z,1014.11
2018-12-30T11:14:51.853Z,1014.17
2018-12-30T11:15:51.876Z,1014.16
2018-12-30T11:16:51.890Z,1014.17
2018-12-30T11:17:51.908Z,1014.25
2018-12-30T11:18:51.976Z,1014.17
2018-12-30T11:19:51.945Z,1014.21
2018-12-30T11:20:51.966Z,1014.18
2018-12-30T11:21:51.985Z,1014.21
2018-12-30T11:22:52.006Z,1014.23
2018-12-30T11:23:52.117Z,1014.18
2018-12-30T11:24:52.039Z,1014.23
2018-12-30T11:25:52.055Z,1014.23
2018-12-30T11:26:52.075Z,1014.26
2018-12-30T11:27:52.093Z,1014.2
2018-12-30T11:28:52.108Z,1014.16
2018-12-30T11:29:52.127Z,1014.19
2018-12-30T11:30:52.148Z,1014.14
2018-12-30T11:31:52.166Z,1014.2
2018-12-30T11:32:52.185Z,1014.21
2018-12-30T11:33:52.199Z,1014.17
2018-12-30T11:34:52.220Z,1014.24
2018-12-30T11:35:52.236Z,1014.19
2018-12-30T11:36:52.259Z,1014.15
2018-12-30T11:37:52.270Z,1014.2
2018-12-30T11:38:52.346Z,1014.15
2018-12-30T11:39:52.312Z,1014.18
2018-12-30T11:40:52.331Z,1014.24
2018-12-30T11:41:52.349Z,1014.22
2018-12-30T11:42:52.362Z,1014.23
2018-12-30T11:43:52.436Z,1014.22
2018-12-30T11:44:52.402Z,1014.24
2018-12-30T11:45:52.420Z,1014.22
2018-12-30T11:46:52.440Z,1014.25
2018-12-30T11:47:52.458Z,1014.22
2018-12-30T11:48:52.470Z,1014.19
2018-12-30T11:49:52.490Z,1014.19
2018-12-30T11:50:52.514Z,1014.17
2018-12-30T11:51:52.528Z,1014.21
2018-12-30T11:52:52.546Z,1014.15
2018-12-30T11:53:52.567Z,1014.1
2018-12-30T11:54:52.581Z,1014.1
2018-12-30T11:55:52.599Z,1014.11
2018-12-30T11:56:52.622Z,1014.19
2018-12-30T11:57:52.637Z,1014.25
2018-12-30T11:58:52.710Z,1014.17
2018-12-30T11:59:52.677Z,1014.18
2018-12-30T12:00:52.691Z,1014.16
2018-12-30T12:01:52.715Z,1014.11
2018-12-30T12:02:52.734Z,1014.16
2018-12-30T12:03:52.800Z,1014.09
2018-12-30T12:04:52.774Z,1014.08
2018-12-30T12:05:52.786Z,1014.13
2018-12-30T12:06:52.802Z,1014.08
2018-12-30T12:07:52.818Z,1014.1
2018-12-30T12:08:52.843Z,1014.09